Memphis, TN (38138)

9:40 PM CST on February 05, 2016 (GMT -0600)
Greenway Gardens | | Change Station
CLOSE
Current Station
Personal Weather Station
Location: Memphis, TN
Elevation: 295 ft
Nearby Weather Stations

Elev 295 ft 35.12 °N, 89.90 °W | Updated 19 seconds ago

Partly Cloudy
Partly Cloudy
38.3 °F
Feels Like 38 °F
N
0.0
Wind Variable Wind from North
Gusts 0.0 mph

Today
High -- | Low -- °F
--% Chance of Precip.
Yesterday
High -- | Low -- °F
Precip. -- in
Pressure 30.39 in
Visibility 10.0 miles
Clouds Mostly Cloudy 22000 ft
Windchill 38 °F
Dew Point 23 °F
Humidity 54%
Rainfall 0.00 in
Snow Depth Not available.
6:55 AM 5:31 PM
Waning Crescent, 8% visible
METAR KMEM 060254Z 00000KT 10SM BKN220 05/M04 A3039 RMK AO2 SLP291 T00501044 55004
Pressure 30.39 in
Visibility 10.0 miles
Clouds Mostly Cloudy 22000 ft
Windchill 38 °F
Dew Point 23 °F
Humidity 54%
Rainfall 0.00 in
Snow Depth Not available.
6:55 AM 5:31 PM
Waning Crescent, 8% visible
METAR KMEM 060254Z 00000KT 10SM BKN220 05/M04 A3039 RMK AO2 SLP291 T00501044 55004

10-Day Weather Forecast

Almanac

Astronomy

Feb. 05, 2016 Rise Set
Actual Time
Civil Twilight
Nautical Twilight
Astronomical Twilight
Moon
Length of Visible Light
Length of Day
Tomorrow will be .
, % of the Moon is Illuminated

Today's Extremes

State Highs State Lows

Community

WunderPhotos

Upload Photos

1,890,919 photos uploaded!

WunderBlog® & News

Nearby

Air Quality

  Air Quality AQ Index Pollutant
Not available.

Snow Depth

Station Depth Elevation

Earthquake Activity

City Distance Mag. Time & Date
Minimum magnitude displayed is 2.5.

Coastal Water Temperatures

Place Temperature

Stations

Nearby Weather Stations

Station Location Temp. Windchill Dew Point Humidity Wind Precip. Elev Updated Type
                   

Watches & Warnings

There are currently no watches in effect.